createdAt,value
2022-08-19T00:01:37.765Z,12.93
2022-08-19T00:04:05.747Z,15.35
2022-08-19T00:06:32.085Z,15.80
2022-08-19T00:08:58.942Z,15.73
2022-08-19T00:11:26.328Z,17.98
2022-08-19T00:13:53.165Z,15.63
2022-08-19T00:16:25.248Z,17.00
2022-08-19T00:18:53.196Z,14.85
2022-08-19T00:21:19.559Z,15.52
2022-08-19T00:23:45.958Z,14.93
2022-08-19T00:26:12.299Z,17.33
2022-08-19T00:28:38.678Z,12.80
2022-08-19T00:31:05.603Z,13.70
2022-08-19T00:33:33.410Z,13.13
2022-08-19T00:36:00.295Z,17.65
2022-08-19T00:38:37.730Z,14.57
2022-08-19T00:41:05.969Z,12.82
2022-08-19T00:43:32.431Z,13.32
2022-08-19T00:45:59.965Z,13.05
2022-08-19T00:48:26.322Z,13.73
2022-08-19T00:50:53.980Z,14.55
2022-08-19T00:53:22.598Z,14.32
2022-08-19T00:55:51.401Z,15.95
2022-08-19T00:58:19.807Z,16.20
2022-08-19T01:00:47.319Z,17.50
2022-08-19T01:03:16.022Z,15.50
2022-08-19T01:05:46.729Z,16.85
2022-08-19T01:08:14.502Z,15.05
2022-08-19T01:11:01.088Z,15.50
2022-08-19T01:13:49.268Z,15.32
2022-08-19T01:16:17.457Z,18.77
2022-08-19T01:18:43.804Z,22.52
2022-08-19T01:21:16.219Z,18.30
2022-08-19T01:26:13.584Z,26.95
2022-08-19T01:28:42.456Z,20.75
2022-08-19T01:31:12.404Z,20.10
2022-08-19T01:33:55.607Z,21.25
2022-08-19T01:36:24.139Z,21.05
2022-08-19T01:38:50.640Z,20.58
2022-08-19T01:41:18.048Z,22.08
2022-08-19T01:44:17.744Z,21.13
2022-08-19T01:46:31.724Z,21.08
2022-08-19T01:48:58.079Z,19.65
2022-08-19T01:51:24.694Z,25.67
2022-08-19T01:53:51.965Z,19.90
2022-08-19T01:56:19.738Z,20.80
2022-08-19T01:58:51.567Z,17.58
2022-08-19T02:01:18.534Z,19.10
2022-08-19T02:03:44.916Z,22.63
2022-08-19T02:06:11.283Z,16.83
2022-08-19T02:08:38.418Z,17.65
2022-08-19T02:11:05.595Z,16.45
2022-08-19T02:13:32.361Z,19.92
2022-08-19T02:15:58.759Z,17.52
2022-08-19T02:18:27.766Z,19.98
2022-08-19T02:20:54.320Z,16.27
2022-08-19T02:23:20.680Z,17.02
2022-08-19T02:25:47.874Z,15.88
2022-08-19T02:28:18.014Z,15.38
2022-08-19T02:30:45.240Z,17.00
2022-08-19T02:33:11.588Z,14.75
2022-08-19T02:35:37.934Z,15.70
2022-08-19T02:38:22.630Z,16.63
2022-08-19T02:40:53.262Z,14.05
2022-08-19T02:43:21.142Z,14.18
2022-08-19T02:45:49.229Z,12.32
2022-08-19T02:48:21.570Z,11.80
2022-08-19T02:50:53.583Z,13.32
2022-08-19T02:53:20.160Z,12.00
2022-08-19T02:55:47.073Z,11.50
2022-08-19T02:58:14.200Z,15.48
2022-08-19T03:00:44.335Z,14.27
2022-08-19T03:03:11.079Z,11.75
2022-08-19T03:05:48.031Z,11.73
2022-08-19T03:08:23.512Z,10.05
2022-08-19T03:10:49.838Z,10.27
2022-08-19T03:13:17.459Z,11.15
2022-08-19T03:15:44.812Z,12.43
2022-08-19T03:18:11.561Z,14.15
2022-08-19T03:20:46.986Z,15.13
2022-08-19T03:23:14.020Z,13.15
2022-08-19T03:25:42.934Z,19.23
2022-08-19T03:28:09.596Z,14.63
2022-08-19T03:30:35.974Z,13.45
2022-08-19T03:33:02.775Z,16.80
2022-08-19T03:35:31.940Z,13.60
2022-08-19T03:37:59.791Z,21.65
2022-08-19T03:40:26.531Z,17.95
2022-08-19T03:42:52.860Z,13.43
2022-08-19T03:45:22.725Z,17.85
2022-08-19T03:47:49.448Z,14.48
2022-08-19T03:50:16.027Z,14.00
2022-08-19T03:52:45.553Z,14.45
2022-08-19T03:55:13.402Z,19.67
2022-08-19T03:57:39.748Z,15.48
2022-08-19T04:00:13.371Z,12.73
2022-08-19T04:02:40.747Z,14.07
2022-08-19T04:05:08.970Z,11.20
2022-08-19T04:07:35.363Z,14.70
2022-08-19T04:10:01.709Z,15.32
2022-08-19T04:12:28.723Z,21.58
2022-08-19T04:14:55.043Z,25.88
2022-08-19T04:17:21.367Z,24.08
2022-08-19T04:19:47.668Z,25.52
2022-08-19T04:22:14.043Z,20.48
2022-08-19T04:24:40.448Z,20.60
2022-08-19T04:27:06.978Z,26.77
2022-08-19T04:29:33.680Z,18.45
2022-08-19T04:32:00.212Z,15.93
2022-08-19T04:34:35.155Z,19.88
2022-08-19T04:37:01.557Z,14.75
2022-08-19T04:39:48.700Z,14.63
2022-08-19T04:42:34.570Z,17.10
2022-08-19T04:45:00.923Z,13.38
2022-08-19T04:47:48.164Z,12.27
2022-08-19T04:50:14.632Z,11.60
2022-08-19T04:52:43.671Z,11.10
2022-08-19T04:55:11.253Z,11.77
2022-08-19T04:57:40.959Z,11.70
2022-08-19T05:00:08.864Z,12.70
2022-08-19T05:02:35.270Z,12.65
2022-08-19T05:05:01.807Z,19.55
2022-08-19T05:07:28.322Z,16.05
2022-08-19T05:09:58.013Z,10.82
2022-08-19T05:12:29.031Z,10.05
2022-08-19T05:14:57.565Z,8.18
2022-08-19T05:17:27.722Z,7.05
2022-08-19T05:20:14.304Z,7.22
2022-08-19T05:22:40.990Z,8.13
2022-08-19T05:25:13.712Z,7.90
2022-08-19T05:27:40.679Z,7.38
2022-08-19T05:30:07.268Z,10.63
2022-08-19T05:32:33.637Z,9.73
2022-08-19T05:35:00.106Z,12.48
2022-08-19T05:37:28.468Z,10.00
2022-08-19T05:39:55.632Z,10.93
2022-08-19T05:42:23.683Z,12.27
2022-08-19T05:44:50.503Z,13.73
2022-08-19T05:47:17.221Z,19.17
2022-08-19T05:49:43.765Z,17.02
2022-08-19T05:52:12.258Z,14.00
2022-08-19T05:54:41.289Z,20.40
2022-08-19T05:57:07.918Z,16.60
2022-08-19T05:59:36.379Z,23.10
2022-08-19T06:02:06.076Z,26.75
2022-08-19T06:04:32.375Z,36.70
2022-08-19T06:06:59.222Z,26.75
2022-08-19T06:09:25.720Z,30.90
2022-08-19T06:11:56.021Z,41.30
2022-08-19T06:14:25.831Z,43.13
2022-08-19T06:16:54.442Z,48.22
2022-08-19T06:19:21.731Z,47.88
2022-08-19T06:21:49.336Z,44.03
2022-08-19T06:24:17.341Z,51.15
2022-08-19T06:29:12.062Z,47.70
2022-08-19T06:31:52.390Z,55.75
2022-08-19T06:34:19.096Z,43.42
2022-08-19T06:36:46.946Z,54.00
2022-08-19T06:39:14.883Z,53.88
2022-08-19T06:41:47.627Z,52.80
2022-08-19T06:44:19.318Z,52.20
2022-08-19T06:46:46.673Z,47.80
2022-08-19T06:49:21.693Z,45.13
2022-08-19T06:51:51.777Z,40.10
2022-08-19T06:54:19.458Z,37.58
2022-08-19T06:56:46.695Z,47.40
2022-08-19T06:59:17.467Z,50.60
2022-08-19T07:01:46.721Z,52.17
2022-08-19T07:04:14.950Z,56.92
2022-08-19T07:06:43.673Z,59.22
2022-08-19T07:09:12.279Z,74.35
2022-08-19T07:11:38.682Z,66.82
2022-08-19T07:14:07.395Z,73.97
2022-08-19T07:16:46.653Z,69.63
2022-08-19T07:19:15.952Z,72.20
2022-08-19T07:21:45.002Z,68.72
2022-08-19T07:24:11.864Z,70.00
2022-08-19T07:26:39.805Z,66.78
2022-08-19T07:29:08.878Z,54.67
2022-08-19T07:31:37.487Z,52.22
2022-08-19T07:34:07.781Z,68.82
2022-08-19T07:36:35.698Z,69.90
2022-08-19T07:39:05.087Z,64.03
2022-08-19T07:41:32.258Z,67.85
2022-08-19T07:43:59.563Z,62.28
2022-08-19T07:46:27.741Z,62.45
2022-08-19T07:48:54.062Z,62.70
2022-08-19T07:51:28.715Z,58.35
2022-08-19T07:54:03.663Z,58.40
2022-08-19T07:56:29.993Z,57.00
2022-08-19T08:01:28.665Z,59.83
2022-08-19T08:04:14.318Z,43.08
2022-08-19T08:06:59.055Z,46.55
2022-08-19T08:09:27.606Z,48.63
2022-08-19T08:12:32.846Z,48.42
2022-08-19T08:14:55.920Z,48.22
2022-08-19T08:17:48.616Z,45.00
2022-08-19T08:20:10.601Z,43.15
2022-08-19T08:22:55.642Z,50.42
2022-08-19T08:25:23.704Z,46.15
2022-08-19T08:27:50.724Z,48.63
2022-08-19T08:30:23.094Z,43.97
2022-08-19T08:32:50.227Z,41.08
2022-08-19T08:35:18.496Z,44.88
2022-08-19T08:37:45.573Z,43.65
2022-08-19T08:40:19.638Z,39.92
2022-08-19T08:42:52.147Z,37.15
2022-08-19T08:45:18.835Z,39.40
2022-08-19T08:47:50.467Z,41.80
2022-08-19T08:50:23.638Z,34.38
2022-08-19T08:52:54.505Z,35.67
2022-08-19T08:55:23.612Z,29.70
2022-08-19T08:57:49.948Z,34.15
2022-08-19T09:00:18.372Z,27.85
2022-08-19T09:02:45.326Z,29.75
2022-08-19T09:05:18.732Z,32.58
2022-08-19T09:08:07.696Z,33.65
2022-08-19T09:10:44.245Z,33.90
2022-08-19T09:13:14.307Z,30.48
2022-08-19T09:15:45.949Z,30.75
2022-08-19T09:18:15.114Z,32.03
2022-08-19T09:20:45.795Z,29.50
2022-08-19T09:23:14.857Z,33.78
2022-08-19T09:25:41.434Z,27.08
2022-08-19T09:28:15.171Z,25.85
2022-08-19T09:30:49.276Z,28.90
2022-08-19T09:33:17.268Z,28.13
2022-08-19T09:35:49.535Z,26.85
2022-08-19T09:38:19.278Z,28.40
2022-08-19T09:40:45.680Z,29.38
2022-08-19T09:43:13.397Z,21.05
2022-08-19T09:45:40.067Z,23.73
2022-08-19T09:48:07.021Z,25.85
2022-08-19T09:50:35.079Z,22.60
2022-08-19T09:53:01.462Z,23.85
2022-08-19T09:55:31.971Z,24.35
2022-08-19T09:58:02.815Z,22.25
2022-08-19T10:00:29.716Z,16.58
2022-08-19T10:02:56.068Z,19.25
2022-08-19T10:05:42.338Z,21.50
2022-08-19T10:08:13.817Z,23.40
2022-08-19T10:10:43.216Z,20.23
2022-08-19T10:13:09.605Z,15.52
2022-08-19T10:15:47.715Z,15.80
2022-08-19T10:18:14.235Z,18.92
2022-08-19T10:20:42.576Z,20.63
2022-08-19T10:23:09.756Z,18.23
2022-08-19T10:25:36.190Z,14.43
2022-08-19T10:28:05.203Z,20.40
2022-08-19T10:30:37.399Z,20.50
2022-08-19T10:33:08.537Z,20.25
2022-08-19T10:35:56.233Z,16.33
2022-08-19T10:38:31.471Z,20.63
2022-08-19T10:40:58.839Z,19.35
2022-08-19T10:43:25.835Z,22.73
2022-08-19T10:46:00.076Z,17.40
2022-08-19T10:48:26.659Z,15.85
2022-08-19T10:51:12.599Z,14.55
2022-08-19T10:53:49.402Z,18.77
2022-08-19T10:56:34.091Z,18.27
2022-08-19T10:59:01.070Z,24.60
2022-08-19T11:01:27.950Z,18.52
2022-08-19T11:03:54.290Z,17.88
2022-08-19T11:06:21.457Z,20.83
2022-08-19T11:08:47.812Z,24.50
2022-08-19T11:11:14.172Z,18.20
2022-08-19T11:13:41.357Z,18.05
2022-08-19T11:16:09.451Z,17.02
2022-08-19T11:18:39.422Z,21.27
2022-08-19T11:21:35.358Z,24.50
2022-08-19T11:24:03.337Z,21.42
2022-08-19T11:26:30.364Z,20.15
2022-08-19T11:28:57.857Z,17.92
2022-08-19T11:31:28.817Z,25.42
2022-08-19T11:33:57.070Z,19.77
2022-08-19T11:36:23.398Z,18.20
2022-08-19T11:38:50.267Z,19.88
2022-08-19T11:41:17.766Z,26.17
2022-08-19T11:43:44.125Z,24.33
2022-08-19T11:46:11.452Z,16.92
2022-08-19T11:48:38.487Z,18.23
2022-08-19T11:51:09.616Z,17.25
2022-08-19T11:53:36.873Z,18.20
2022-08-19T11:56:03.897Z,19.10
2022-08-19T11:58:30.209Z,22.17
2022-08-19T12:00:56.518Z,23.20
2022-08-19T12:03:22.871Z,27.52
2022-08-19T12:05:50.687Z,21.02
2022-08-19T12:08:17.385Z,22.30
2022-08-19T12:10:43.837Z,23.98
2022-08-19T12:13:10.856Z,30.23
2022-08-19T12:15:38.425Z,19.75
2022-08-19T12:18:05.583Z,23.13
2022-08-19T12:20:36.391Z,23.17
2022-08-19T12:23:03.575Z,23.87
2022-08-19T12:25:29.915Z,22.55
2022-08-19T12:27:57.603Z,23.42
2022-08-19T12:30:24.468Z,20.58
2022-08-19T12:32:52.069Z,29.75
2022-08-19T12:35:20.835Z,26.23
2022-08-19T12:37:56.594Z,24.60
2022-08-19T12:40:27.163Z,18.55
2022-08-19T12:42:54.362Z,18.70
2022-08-19T12:45:20.777Z,20.33
2022-08-19T12:47:47.734Z,14.68
2022-08-19T12:50:14.231Z,14.32
2022-08-19T12:52:43.071Z,18.23
2022-08-19T12:55:09.628Z,15.55
2022-08-19T12:57:37.764Z,21.23
2022-08-19T13:00:09.834Z,20.92
2022-08-19T13:05:07.035Z,12.27
2022-08-19T13:07:33.432Z,10.45
2022-08-19T13:09:59.857Z,11.25
2022-08-19T13:12:27.557Z,14.70
2022-08-19T13:14:54.245Z,13.18
2022-08-19T13:17:21.346Z,10.70
2022-08-19T13:19:47.686Z,15.18
2022-08-19T13:22:15.179Z,13.82
2022-08-19T13:24:46.833Z,12.27
2022-08-19T13:27:13.550Z,14.23
2022-08-19T13:29:59.250Z,14.65
2022-08-19T13:32:44.270Z,16.95
2022-08-19T13:35:14.889Z,16.90
2022-08-19T13:37:43.214Z,19.50
2022-08-19T13:40:13.903Z,17.17
2022-08-19T13:42:40.774Z,17.23
2022-08-19T13:45:07.893Z,19.90
2022-08-19T13:47:43.522Z,22.70
2022-08-19T13:50:11.733Z,18.02
2022-08-19T13:52:39.218Z,18.08
2022-08-19T13:55:06.267Z,22.70
2022-08-19T13:57:32.594Z,17.35
2022-08-19T13:59:59.271Z,21.17
2022-08-19T14:02:25.950Z,16.15
2022-08-19T14:04:52.326Z,20.50
2022-08-19T14:07:18.626Z,18.77
2022-08-19T14:09:45.076Z,18.88
2022-08-19T14:12:13.868Z,13.73
2022-08-19T14:14:41.190Z,14.13
2022-08-19T14:17:08.201Z,14.40
2022-08-19T14:19:34.519Z,13.18
2022-08-19T14:22:00.880Z,18.52
2022-08-19T14:24:27.959Z,14.20
2022-08-19T14:26:54.265Z,18.02
2022-08-19T14:29:20.609Z,10.23
2022-08-19T14:31:47.124Z,11.20
2022-08-19T14:34:13.656Z,15.65
2022-08-19T14:36:40.035Z,10.63
2022-08-19T14:39:06.400Z,13.25
2022-08-19T14:41:34.422Z,12.27
2022-08-19T14:44:02.186Z,8.82
2022-08-19T14:46:29.493Z,9.65
2022-08-19T14:48:56.463Z,8.77
2022-08-19T14:51:23.909Z,8.30
2022-08-19T14:53:50.957Z,9.85
2022-08-19T14:56:18.708Z,12.40
2022-08-19T14:58:45.276Z,7.57
2022-08-19T15:01:12.451Z,7.30
2022-08-19T15:03:40.263Z,7.78
2022-08-19T15:06:06.952Z,9.15
2022-08-19T15:08:36.411Z,8.05
2022-08-19T15:11:02.963Z,9.15
2022-08-19T15:13:30.987Z,6.70
2022-08-19T15:15:58.100Z,11.88
2022-08-19T15:18:24.770Z,8.38
2022-08-19T15:20:51.805Z,6.95
2022-08-19T15:23:18.797Z,7.00
2022-08-19T15:25:45.266Z,5.13
2022-08-19T15:28:12.183Z,5.60
2022-08-19T15:30:39.380Z,10.98
2022-08-19T15:33:05.818Z,6.13
2022-08-19T15:35:32.310Z,6.72
2022-08-19T15:37:58.690Z,5.20
2022-08-19T15:40:25.741Z,8.45
2022-08-19T15:42:52.241Z,5.28
2022-08-19T15:45:19.462Z,5.40
2022-08-19T15:47:45.814Z,5.93
2022-08-19T15:50:16.491Z,4.50
2022-08-19T15:52:49.963Z,6.68
2022-08-19T15:55:32.334Z,7.25
2022-08-19T15:58:29.010Z,4.63
2022-08-19T16:01:15.497Z,7.45
2022-08-19T16:04:01.231Z,7.78
2022-08-19T16:06:28.772Z,4.78
2022-08-19T16:08:56.730Z,9.98
2022-08-19T16:11:29.257Z,6.32
2022-08-19T16:13:57.768Z,4.38
2022-08-19T16:16:31.075Z,3.75
2022-08-19T16:19:02.355Z,4.13
2022-08-19T16:21:33.356Z,5.38
2022-08-19T16:24:00.987Z,3.70
2022-08-19T16:26:31.121Z,5.75
2022-08-19T16:28:58.796Z,4.13
2022-08-19T16:31:25.901Z,6.45
2022-08-19T16:33:52.701Z,6.63
2022-08-19T16:36:19.021Z,11.27
2022-08-19T16:38:49.357Z,5.05
2022-08-19T16:41:15.999Z,4.72
2022-08-19T16:43:42.355Z,3.55
2022-08-19T16:46:09.542Z,4.45
2022-08-19T16:48:38.978Z,4.35
2022-08-19T16:51:08.504Z,3.70
2022-08-19T16:53:35.858Z,4.05
2022-08-19T16:56:02.262Z,5.53
2022-08-19T16:58:29.417Z,6.28
2022-08-19T17:00:59.602Z,6.93
2022-08-19T17:03:36.408Z,6.40
2022-08-19T17:06:03.859Z,4.22
2022-08-19T17:08:31.423Z,4.30
2022-08-19T17:11:17.330Z,5.05
2022-08-19T17:13:44.626Z,5.55
2022-08-19T17:16:14.169Z,4.50
2022-08-19T17:18:40.536Z,4.60
2022-08-19T17:21:06.880Z,4.45
2022-08-19T17:23:42.203Z,5.40
2022-08-19T17:26:09.758Z,5.32
2022-08-19T17:28:43.988Z,7.93
2022-08-19T17:31:11.309Z,4.97
2022-08-19T17:33:41.150Z,6.72
2022-08-19T17:36:08.904Z,5.82
2022-08-19T17:38:35.768Z,5.68
2022-08-19T17:41:05.107Z,5.03
2022-08-19T17:43:38.946Z,6.80
2022-08-19T17:46:11.067Z,5.85
2022-08-19T17:48:40.406Z,5.50
2022-08-19T17:51:22.348Z,5.45
2022-08-19T17:53:50.517Z,4.93
2022-08-19T17:56:19.837Z,6.65
2022-08-19T17:58:57.904Z,6.60
2022-08-19T18:01:32.014Z,5.68
2022-08-19T18:04:17.119Z,5.82
2022-08-19T18:06:46.035Z,5.57
2022-08-19T18:09:20.949Z,6.72
2022-08-19T18:11:52.708Z,5.70
2022-08-19T18:14:19.901Z,5.88
2022-08-19T18:16:46.480Z,8.85
2022-08-19T18:19:12.808Z,9.88
2022-08-19T18:21:40.685Z,7.50
2022-08-19T18:24:07.063Z,5.97
2022-08-19T18:26:33.695Z,5.60
2022-08-19T18:29:00.119Z,6.22
2022-08-19T18:31:26.509Z,4.07
2022-08-19T18:33:53.033Z,4.05
2022-08-19T18:36:37.448Z,4.50
2022-08-19T18:39:25.084Z,3.22
2022-08-19T18:42:14.290Z,4.15
2022-08-19T18:45:00.065Z,2.53
2022-08-19T18:47:45.430Z,2.17
2022-08-19T18:50:12.943Z,2.28
2022-08-19T18:52:40.186Z,2.42
2022-08-19T18:55:07.402Z,2.25
2022-08-19T18:57:33.792Z,2.85
2022-08-19T19:00:00.204Z,4.95
2022-08-19T19:02:27.614Z,4.55
2022-08-19T19:04:55.919Z,3.15
2022-08-19T19:07:23.357Z,2.70
2022-08-19T19:09:52.472Z,2.70
2022-08-19T19:12:18.780Z,2.65
2022-08-19T19:14:49.570Z,4.97
2022-08-19T19:17:16.492Z,8.05
2022-08-19T19:19:43.922Z,3.70
2022-08-19T19:22:18.009Z,3.80
2022-08-19T19:24:44.371Z,7.05
2022-08-19T19:27:12.781Z,3.78
2022-08-19T19:29:39.647Z,4.85
2022-08-19T19:32:07.937Z,3.90
2022-08-19T19:34:34.608Z,4.22
2022-08-19T19:37:01.008Z,3.75
2022-08-19T19:39:34.062Z,3.83
2022-08-19T19:42:19.655Z,3.40
2022-08-19T19:44:48.670Z,3.70
2022-08-19T19:47:18.849Z,3.35
2022-08-19T19:50:10.585Z,3.53
2022-08-19T19:52:32.410Z,7.78
2022-08-19T19:54:58.784Z,3.63
2022-08-19T19:57:26.559Z,5.10
2022-08-19T19:59:58.361Z,4.25
2022-08-19T20:02:25.133Z,4.40
2022-08-19T20:04:51.483Z,6.45
2022-08-19T20:07:17.878Z,3.80
2022-08-19T20:09:59.339Z,4.28
2022-08-19T20:12:26.757Z,3.60
2022-08-19T20:14:53.087Z,4.22
2022-08-19T20:17:20.845Z,3.83
2022-08-19T20:19:47.917Z,5.00
2022-08-19T20:22:14.583Z,4.13
2022-08-19T20:24:42.408Z,4.35
2022-08-19T20:27:09.132Z,4.45
2022-08-19T20:29:39.380Z,4.82
2022-08-19T20:32:08.896Z,5.63
2022-08-19T20:34:35.231Z,4.38
2022-08-19T20:37:03.306Z,7.65
2022-08-19T20:39:29.624Z,9.05
2022-08-19T20:41:56.430Z,5.00
2022-08-19T20:44:24.664Z,5.97
2022-08-19T20:46:54.627Z,5.13
2022-08-19T20:49:22.055Z,6.03
2022-08-19T20:51:48.839Z,5.47
2022-08-19T20:54:15.167Z,6.88
2022-08-19T20:56:41.517Z,9.18
2022-08-19T20:59:10.403Z,6.38
2022-08-19T21:01:37.198Z,10.63
2022-08-19T21:04:03.789Z,6.95
2022-08-19T21:06:30.994Z,8.93
2022-08-19T21:08:58.545Z,9.63
2022-08-19T21:11:24.887Z,7.53
2022-08-19T21:13:51.270Z,8.30
2022-08-19T21:16:17.650Z,8.15
2022-08-19T21:18:44.010Z,9.05
2022-08-19T21:21:10.377Z,9.07
2022-08-19T21:23:36.859Z,11.18
2022-08-19T21:26:03.287Z,9.23
2022-08-19T21:28:36.026Z,11.70
2022-08-19T21:31:03.927Z,9.13
2022-08-19T21:33:31.798Z,10.93
2022-08-19T21:35:59.186Z,10.35
2022-08-19T21:38:25.526Z,13.38
2022-08-19T21:40:51.852Z,11.35
2022-08-19T21:43:18.239Z,15.02
2022-08-19T21:45:45.506Z,13.15
2022-08-19T21:48:12.497Z,14.05
2022-08-19T21:50:38.804Z,15.98
2022-08-19T21:53:05.236Z,15.65
2022-08-19T21:55:31.596Z,12.02
2022-08-19T21:57:59.957Z,11.98
2022-08-19T22:00:28.146Z,11.55
2022-08-19T22:05:25.420Z,13.32
2022-08-19T22:07:52.758Z,14.73
2022-08-19T22:10:20.046Z,13.98
2022-08-19T22:12:51.400Z,14.50
2022-08-19T22:15:18.880Z,13.23
2022-08-19T22:17:45.187Z,13.45
2022-08-19T22:20:13.394Z,15.52
2022-08-19T22:22:45.508Z,11.57
2022-08-19T22:25:13.382Z,15.48
2022-08-19T22:28:00.482Z,18.98
2022-08-19T22:30:27.370Z,14.70
2022-08-19T22:33:01.570Z,13.25
2022-08-19T22:35:31.283Z,15.65
2022-08-19T22:37:58.891Z,16.10
2022-08-19T22:40:26.827Z,15.50
2022-08-19T22:43:04.228Z,13.80
2022-08-19T22:45:31.110Z,17.35
2022-08-19T22:47:57.709Z,18.73
2022-08-19T22:50:24.093Z,14.85
2022-08-19T22:52:54.875Z,14.38
2022-08-19T22:55:21.193Z,15.93
2022-08-19T22:57:47.786Z,15.65
2022-08-19T23:00:14.712Z,13.85
2022-08-19T23:02:51.322Z,16.70
2022-08-19T23:05:18.834Z,16.35
2022-08-19T23:07:52.063Z,17.38
2022-08-19T23:10:26.942Z,16.88
2022-08-19T23:12:54.840Z,13.45
2022-08-19T23:15:24.090Z,16.80
2022-08-19T23:17:50.797Z,20.80
2022-08-19T23:20:17.145Z,19.92
2022-08-19T23:22:44.379Z,14.18
2022-08-19T23:25:12.083Z,16.08
2022-08-19T23:27:57.027Z,18.23
2022-08-19T23:30:26.454Z,19.83
2022-08-19T23:32:57.484Z,14.77
2022-08-19T23:35:24.210Z,17.08
2022-08-19T23:37:51.991Z,18.20
2022-08-19T23:40:21.846Z,18.23
2022-08-19T23:42:48.940Z,16.50
2022-08-19T23:45:16.125Z,14.48
2022-08-19T23:47:50.119Z,19.35
2022-08-19T23:50:16.810Z,17.13
2022-08-19T23:52:44.822Z,20.30
2022-08-19T23:55:11.704Z,15.60
2022-08-19T23:57:38.079Z,14.88
